Time;durP1;ratioP1;P1;durP2;ratioP2;P2;SDS_P1;SDS_P2;PMS_P1;PMS_P2;Temp;Humidity;BMP_temperature;BMP_pressure;BME280_temperature;BME280_humidity;BME280_pressure;Samples;Min_cycle;Max_cycle;Signal;HPM_P1;HPM_P2
2022/06/25 00:00:12;;;;;;;3.17;2.80;;;25.40;53.00;24.30;100515.00;;;;5068020;28;20378;-72
2022/06/25 00:02:58;;;;;;;2.65;2.45;;;25.40;53.30;24.30;100525.00;;;;5048408;28;20123;-71
2022/06/25 00:05:44;;;;;;;2.85;2.55;;;25.40;52.80;24.30;100513.00;;;;5064812;28;20595;-72
2022/06/25 00:08:31;;;;;;;3.03;2.72;;;25.40;52.70;24.30;100520.00;;;;5063384;28;20074;-72
2022/06/25 00:14:23;;;;;;;3.65;2.53;;;25.40;52.70;24.20;100518.00;;;;5053338;28;20098;-72
2022/06/25 00:17:09;;;;;;;3.60;3.08;;;25.40;52.70;24.30;100516.00;;;;5065303;28;20044;-72
2022/06/25 00:19:55;;;;;;;4.93;3.00;;;25.40;52.80;24.30;100518.00;;;;5051687;28;20048;-71
2022/06/25 00:22:42;;;;;;;2.83;2.63;;;25.40;52.90;24.20;100518.00;;;;5059289;28;20128;-71
2022/06/25 00:25:28;;;;;;;3.15;2.85;;;25.40;53.10;24.20;100515.00;;;;5067150;28;20378;-72
2022/06/25 00:28:14;;;;;;;4.07;2.50;;;25.40;53.00;24.20;100511.00;;;;5062364;28;20029;-71
2022/06/25 00:31:00;;;;;;;3.75;3.45;;;25.40;53.00;24.30;100520.00;;;;5047969;28;20051;-71
2022/06/25 00:33:46;;;;;;;3.05;2.50;;;25.40;53.10;24.30;100522.00;;;;5048136;28;20049;-72
2022/06/25 00:36:32;;;;;;;3.00;2.78;;;25.30;53.00;24.20;100523.00;;;;5060421;28;20049;-71
2022/06/25 00:39:18;;;;;;;3.97;2.83;;;25.40;53.20;24.20;100523.00;;;;5066010;28;20062;-72
2022/06/25 00:42:09;;;;;;;3.33;2.85;;;25.40;53.10;24.20;100529.00;;;;5048929;28;20041;-72
2022/06/25 00:44:55;;;;;;;4.65;3.95;;;25.40;53.20;24.20;100528.00;;;;5037640;28;20067;-72
2022/06/25 00:47:41;;;;;;;4.47;3.55;;;25.40;53.40;24.20;100533.00;;;;5049880;28;20036;-72
2022/06/25 00:50:27;;;;;;;5.53;4.50;;;25.30;53.30;24.20;100534.00;;;;5065575;28;20044;-72
2022/06/25 00:53:13;;;;;;;4.10;3.70;;;25.40;53.40;24.20;100540.00;;;;5048267;28;20078;-72
2022/06/25 00:56:00;;;;;;;4.97;4.47;;;25.30;53.30;24.20;100537.00;;;;5051364;28;20126;-71
2022/06/25 00:58:46;;;;;;;5.05;4.60;;;25.30;53.40;24.20;100536.00;;;;5060977;28;20551;-71
2022/06/25 01:01:33;;;;;;;5.68;4.93;;;25.30;53.30;24.20;100544.00;;;;5031662;28;20040;-71
2022/06/25 01:04:19;;;;;;;4.13;3.72;;;25.30;53.40;24.20;100546.00;;;;5044851;28;20036;-72
2022/06/25 01:07:07;;;;;;;5.25;4.47;;;25.30;53.40;24.20;100543.00;;;;5066946;28;20542;-71
2022/06/25 01:09:53;;;;;;;5.05;4.30;;;25.40;53.50;24.20;100550.00;;;;5020530;28;20032;-71
2022/06/25 01:12:39;;;;;;;3.72;3.42;;;25.30;53.40;24.20;100548.00;;;;5042493;28;20037;-71
2022/06/25 01:15:25;;;;;;;4.32;3.92;;;25.40;53.40;24.20;100553.00;;;;5050474;28;20071;-71
2022/06/25 01:18:12;;;;;;;4.97;4.30;;;25.30;53.40;24.20;100548.00;;;;5061998;28;20037;-71
2022/06/25 01:20:59;;;;;;;4.75;4.35;;;25.20;53.30;24.20;100552.00;;;;5066164;28;20115;-71
2022/06/25 01:23:45;;;;;;;6.03;4.50;;;25.30;53.50;24.20;100544.00;;;;5045595;28;20115;-71
2022/06/25 01:26:36;;;;;;;4.43;4.03;;;25.30;53.40;24.20;100552.00;;;;5058331;28;20122;-71
2022/06/25 01:29:22;;;;;;;5.68;3.90;;;25.30;53.40;24.20;100548.00;;;;5064968;28;20057;-72
2022/06/25 01:32:10;;;;;;;5.22;4.43;;;25.30;53.30;24.20;100558.00;;;;5062199;28;20114;-71
2022/06/25 01:34:56;;;;;;;4.82;4.40;;;25.30;53.40;24.20;100546.00;;;;5048973;28;20494;-72
2022/06/25 01:37:42;;;;;;;6.22;4.95;;;25.20;53.20;24.20;100547.00;;;;5064440;28;20046;-71
2022/06/25 01:40:28;;;;;;;5.78;5.18;;;25.30;53.30;24.20;100551.00;;;;5064115;28;20044;-72
2022/06/25 01:43:14;;;;;;;7.60;5.53;;;25.30;53.40;24.20;100550.00;;;;5060659;28;20040;-71
2022/06/25 01:46:00;;;;;;;6.07;5.05;;;25.30;53.40;24.20;100555.00;;;;5063444;28;20032;-71
2022/06/25 01:48:46;;;;;;;5.43;4.93;;;25.30;54.10;24.20;100550.00;;;;5045912;28;20039;-71
2022/06/25 01:51:32;;;;;;;6.35;4.80;;;25.30;53.30;24.20;100558.00;;;;5057885;28;20040;-71
2022/06/25 01:54:18;;;;;;;7.00;5.00;;;25.30;53.30;24.20;100558.00;;;;5063311;28;20101;-72
2022/06/25 01:57:04;;;;;;;6.45;5.30;;;25.30;53.40;24.20;100560.00;;;;5066483;28;20044;-71
2022/06/25 01:59:51;;;;;;;6.60;5.13;;;25.30;53.40;24.20;100563.00;;;;5048093;28;20451;-71
2022/06/25 02:02:38;;;;;;;5.43;4.93;;;25.30;53.40;24.20;100571.00;;;;5061142;28;20052;-71
2022/06/25 02:08:34;;;;;;;5.95;4.80;;;25.30;53.50;24.20;100571.00;;;;5047592;28;20123;-72
2022/06/25 02:11:20;;;;;;;6.07;5.45;;;25.30;53.40;24.20;100580.00;;;;5057402;28;20477;-72
2022/06/25 02:14:06;;;;;;;6.53;4.63;;;25.30;53.50;24.20;100571.00;;;;5064997;28;20101;-71
2022/06/25 02:16:53;;;;;;;7.03;4.32;;;25.20;53.50;24.20;100576.00;;;;5051094;28;20059;-71
2022/06/25 02:19:39;;;;;;;8.30;5.47;;;25.30;53.50;24.20;100575.00;;;;5063271;28;20117;-71
2022/06/25 02:22:26;;;;;;;6.40;4.85;;;25.30;53.50;24.20;100575.00;;;;5060438;28;20040;-71
2022/06/25 02:25:12;;;;;;;4.93;4.43;;;25.20;53.50;24.20;100568.00;;;;5047673;28;20111;-71
2022/06/25 02:27:59;;;;;;;9.65;5.32;;;25.30;53.50;24.20;100582.00;;;;5064313;28;20064;-71
2022/06/25 02:30:45;;;;;;;5.88;4.90;;;25.40;53.60;24.20;100583.00;;;;5061554;28;20032;-71
2022/06/25 02:33:31;;;;;;;6.82;4.60;;;25.20;53.40;24.20;100582.00;;;;5061855;28;20138;-72
2022/06/25 02:36:17;;;;;;;4.95;4.45;;;25.20;53.40;24.20;100592.00;;;;5064472;28;20041;-72
2022/06/25 02:39:03;;;;;;;8.15;4.78;;;25.20;53.40;24.20;100600.00;;;;5061065;28;20045;-71
2022/06/25 02:41:49;;;;;;;5.32;4.85;;;25.20;53.40;24.20;100589.00;;;;5061546;28;20048;-71
2022/06/25 02:44:35;;;;;;;6.53;4.85;;;25.20;53.40;24.20;100606.00;;;;5061505;28;20033;-71
2022/06/25 02:47:21;;;;;;;5.57;4.32;;;25.20;53.40;24.20;100615.00;;;;5063518;28;20091;-71
2022/06/25 02:50:07;;;;;;;4.43;4.03;;;25.20;53.30;24.20;100608.00;;;;5060276;28;20502;-72
2022/06/25 02:52:53;;;;;;;4.72;4.20;;;25.20;53.30;24.20;100613.00;;;;5063360;28;20506;-71
2022/06/25 02:58:56;;;;;;;4.88;4.32;;;25.20;53.30;24.20;100625.00;;;;5059628;28;20469;-71
2022/06/25 03:01:42;;;;;;;4.22;3.63;;;25.20;53.20;24.20;100620.00;;;;5066709;28;20502;-71
2022/06/25 03:04:28;;;;;;;4.35;3.75;;;25.30;53.30;24.20;100623.00;;;;5060348;28;20040;-71
2022/06/25 03:07:14;;;;;;;5.57;4.15;;;25.10;53.20;24.20;100616.00;;;;5047855;28;20029;-72
2022/06/25 03:10:00;;;;;;;5.90;4.13;;;25.20;53.20;24.20;100624.00;;;;5064685;28;20036;-71
2022/06/25 03:12:46;;;;;;;4.70;3.50;;;25.20;53.30;24.20;100626.00;;;;5064626;28;20040;-71
2022/06/25 03:15:32;;;;;;;5.45;3.85;;;25.20;53.20;24.20;100632.00;;;;5065582;28;20032;-71
2022/06/25 03:18:18;;;;;;;4.47;3.67;;;25.20;53.20;24.20;100628.00;;;;5063310;28;20385;-71
2022/06/25 03:21:04;;;;;;;4.25;3.50;;;25.20;53.10;24.20;100627.00;;;;5061862;28;20053;-71
2022/06/25 03:23:50;;;;;;;4.55;3.30;;;25.20;53.10;24.20;100630.00;;;;5061016;28;20097;-72
2022/06/25 03:26:36;;;;;;;8.68;3.47;;;25.20;53.10;24.20;100629.00;;;;5065777;28;20421;-71
2022/06/25 03:29:22;;;;;;;3.60;3.30;;;25.20;53.10;24.20;100640.00;;;;5056766;28;20040;-72
2022/06/25 03:32:08;;;;;;;5.32;3.65;;;25.20;53.10;24.20;100635.00;;;;5066066;28;20477;-71
2022/06/25 03:34:54;;;;;;;4.18;3.30;;;25.20;53.00;24.20;100637.00;;;;5063513;28;20199;-71
2022/06/25 03:37:40;;;;;;;3.95;3.20;;;25.20;53.00;24.20;100637.00;;;;5057701;28;20445;-72
2022/06/25 03:40:27;;;;;;;4.30;3.45;;;25.20;53.00;24.20;100634.00;;;;5060368;28;20040;-72
2022/06/25 03:43:13;;;;;;;5.00;3.72;;;25.20;53.00;24.20;100644.00;;;;5067145;28;20041;-71
2022/06/25 03:45:59;;;;;;;4.57;3.38;;;25.20;53.00;24.20;100646.00;;;;5050801;28;20045;-71
2022/06/25 03:48:45;;;;;;;6.43;3.20;;;25.20;53.00;24.10;100633.00;;;;5060139;28;20051;-72
2022/06/25 03:51:31;;;;;;;4.47;3.08;;;25.20;53.00;24.20;100646.00;;;;5068071;28;20462;-72
2022/06/25 03:54:17;;;;;;;3.85;2.97;;;25.20;53.00;24.10;100649.00;;;;5049183;28;20036;-71
2022/06/25 03:57:04;;;;;;;3.33;2.72;;;25.20;53.00;24.10;100652.00;;;;5068001;28;20049;-72
2022/06/25 03:59:51;;;;;;;3.27;2.90;;;25.20;53.00;24.10;100658.00;;;;5048790;28;20049;-72
2022/06/25 04:02:37;;;;;;;4.80;2.80;;;25.20;53.00;24.10;100647.00;;;;5047365;28;20041;-71
2022/06/25 04:05:23;;;;;;;5.10;2.80;;;25.20;53.00;24.10;100655.00;;;;5051320;28;20321;-71
2022/06/25 04:08:09;;;;;;;4.38;3.00;;;25.20;52.90;24.10;100657.00;;;;5066444;28;20040;-71
2022/06/25 04:10:55;;;;;;;3.92;2.60;;;25.20;52.80;24.10;100658.00;;;;5048517;28;20045;-72
2022/06/25 04:13:41;;;;;;;4.55;2.50;;;25.10;52.70;24.10;100669.00;;;;5064863;28;20033;-72
2022/06/25 04:16:27;;;;;;;2.65;2.45;;;25.20;52.70;24.10;100663.00;;;;5049184;28;20044;-72
2022/06/25 04:19:14;;;;;;;3.63;2.65;;;25.10;52.60;24.10;100671.00;;;;5068608;28;20429;-71
2022/06/25 04:22:00;;;;;;;3.85;2.33;;;25.20;52.60;24.10;100665.00;;;;5065885;28;20052;-72
2022/06/25 04:24:46;;;;;;;3.20;2.90;;;25.20;52.60;24.10;100668.00;;;;5065652;28;20040;-72
2022/06/25 04:30:36;;;;;;;2.75;2.30;;;25.20;52.50;24.10;100669.00;;;;5064171;28;20043;-71
2022/06/25 04:33:22;;;;;;;2.83;2.33;;;25.20;52.40;24.10;100677.00;;;;5060707;28;20700;-71
2022/06/25 04:36:08;;;;;;;2.65;2.10;;;25.20;52.40;24.10;100683.00;;;;5066307;28;20037;-71
2022/06/25 04:38:54;;;;;;;3.78;2.30;;;25.10;52.40;24.10;100676.00;;;;5050451;28;20463;-72
2022/06/25 04:41:40;;;;;;;2.90;2.38;;;25.10;52.30;24.10;100679.00;;;;5037372;28;20040;-72
2022/06/25 04:44:26;;;;;;;3.20;1.98;;;25.20;52.40;24.10;100676.00;;;;5049003;28;20329;-71
2022/06/25 04:47:12;;;;;;;2.80;2.17;;;25.10;52.30;24.10;100675.00;;;;5060695;28;20478;-72
2022/06/25 04:49:58;;;;;;;2.45;1.85;;;25.10;52.20;24.10;100684.00;;;;5063454;28;20057;-72
2022/06/25 04:52:44;;;;;;;4.78;2.25;;;25.10;52.20;24.10;100688.00;;;;5066156;28;20057;-71
2022/06/25 04:55:31;;;;;;;2.58;1.90;;;25.10;52.30;24.10;100690.00;;;;5066316;28;20036;-71
2022/06/25 04:58:17;;;;;;;2.50;1.83;;;25.10;52.40;24.10;100693.00;;;;5060032;28;20047;-72
2022/06/25 05:01:03;;;;;;;2.40;2.00;;;25.20;52.50;24.10;100695.00;;;;5064785;28;20060;-72
2022/06/25 05:03:49;;;;;;;2.85;2.40;;;25.10;52.40;24.10;100694.00;;;;5062321;28;20106;-72
2022/06/25 05:06:35;;;;;;;4.03;2.50;;;25.10;52.40;24.10;100699.00;;;;5064780;28;20036;-71
2022/06/25 05:09:21;;;;;;;2.80;2.00;;;25.20;52.50;24.10;100701.00;;;;5063436;28;20040;-73
2022/06/25 05:12:07;;;;;;;3.30;1.83;;;25.10;53.20;24.10;100701.00;;;;5067513;28;20040;-72
2022/06/25 05:14:53;;;;;;;2.72;1.88;;;25.10;52.60;24.10;100710.00;;;;5058750;28;20044;-72
2022/06/25 05:17:39;;;;;;;3.35;2.03;;;25.10;52.60;24.10;100713.00;;;;5062082;28;20056;-73
2022/06/25 05:20:25;;;;;;;3.22;2.25;;;25.10;52.60;24.10;100720.00;;;;5064164;28;20040;-73
2022/06/25 05:23:12;;;;;;;3.22;2.08;;;25.10;52.60;24.10;100718.00;;;;5058695;28;20127;-71
2022/06/25 05:25:58;;;;;;;2.78;2.10;;;25.20;52.70;24.10;100728.00;;;;5065118;28;20040;-71
2022/06/25 05:28:44;;;;;;;5.65;2.10;;;25.20;53.50;24.10;100726.00;;;;5061860;28;20028;-71
2022/06/25 05:31:30;;;;;;;2.42;1.88;;;25.20;52.80;24.10;100736.00;;;;5062159;28;20044;-71
2022/06/25 05:34:16;;;;;;;4.18;1.77;;;25.10;52.80;24.10;100739.00;;;;5064921;28;20036;-71
2022/06/25 05:37:02;;;;;;;3.70;1.67;;;25.10;52.80;24.10;100731.00;;;;5062548;28;20044;-71
2022/06/25 05:39:48;;;;;;;2.33;1.92;;;25.10;52.90;24.10;100739.00;;;;5041167;28;20056;-73
2022/06/25 05:42:34;;;;;;;2.47;1.77;;;25.10;52.90;24.10;100751.00;;;;5064065;28;20647;-71
2022/06/25 05:45:20;;;;;;;3.47;1.83;;;25.20;53.00;24.10;100739.00;;;;5063049;28;20037;-71
2022/06/25 05:48:06;;;;;;;2.88;1.65;;;25.20;52.90;24.10;100754.00;;;;5049535;28;20040;-72
2022/06/25 05:50:52;;;;;;;2.00;1.70;;;25.10;52.90;24.10;100755.00;;;;5061215;28;20054;-72
2022/06/25 05:53:39;;;;;;;3.70;1.70;;;25.10;52.80;24.10;100754.00;;;;5062491;28;20032;-72
2022/06/25 05:56:25;;;;;;;5.13;1.92;;;25.10;52.70;24.10;100751.00;;;;5061753;28;20044;-72
2022/06/25 05:59:12;;;;;;;2.72;1.75;;;25.20;52.80;24.10;100751.00;;;;5059040;28;20478;-73
2022/06/25 06:01:58;;;;;;;2.05;1.70;;;25.20;52.80;24.10;100762.00;;;;5058962;28;20046;-72
2022/06/25 06:04:44;;;;;;;2.40;1.60;;;25.20;52.80;24.10;100764.00;;;;5063515;28;20539;-73
2022/06/25 06:07:30;;;;;;;1.70;1.60;;;25.10;52.70;24.10;100767.00;;;;5054585;28;20041;-71
2022/06/25 06:10:17;;;;;;;2.80;1.70;;;25.00;52.70;24.10;100768.00;;;;5063694;28;20122;-73
2022/06/25 06:13:03;;;;;;;1.50;1.40;;;25.10;52.70;24.10;100765.00;;;;5062631;28;20099;-73
2022/06/25 06:15:49;;;;;;;2.40;1.70;;;25.20;52.70;24.10;100764.00;;;;5062559;28;20067;-73
2022/06/25 06:18:35;;;;;;;1.42;1.33;;;25.10;52.70;24.10;100768.00;;;;5040014;28;20508;-73
2022/06/25 06:21:21;;;;;;;2.47;1.77;;;25.10;52.70;24.10;100764.00;;;;5060009;28;20053;-73
2022/06/25 06:24:08;;;;;;;1.60;1.50;;;25.20;52.70;24.10;100765.00;;;;5064120;28;20180;-73
2022/06/25 06:26:54;;;;;;;1.60;1.20;;;25.20;52.70;24.10;100780.00;;;;5047930;28;20033;-73
2022/06/25 06:29:40;;;;;;;2.00;1.65;;;25.20;52.70;24.10;100780.00;;;;5062345;28;20043;-67
2022/06/25 06:32:27;;;;;;;3.95;1.25;;;25.20;52.70;24.10;100776.00;;;;5061532;28;20047;-68
2022/06/25 06:35:13;;;;;;;2.83;1.60;;;25.20;52.60;24.10;100783.00;;;;5038191;28;20093;-68
2022/06/25 06:37:59;;;;;;;2.55;1.50;;;25.20;52.70;24.10;100785.00;;;;5058981;28;20048;-67
2022/06/25 06:40:45;;;;;;;4.63;1.52;;;25.10;52.60;24.10;100781.00;;;;5046895;28;20044;-67
2022/06/25 06:43:31;;;;;;;4.10;1.65;;;25.20;52.60;24.10;100784.00;;;;5057138;28;20037;-71
2022/06/25 06:46:17;;;;;;;3.25;1.30;;;25.20;52.60;24.10;100794.00;;;;5047742;28;20121;-67
2022/06/25 06:49:03;;;;;;;3.20;1.52;;;25.20;52.70;24.10;100796.00;;;;5061975;28;20067;-67
2022/06/25 06:51:49;;;;;;;4.05;1.40;;;25.20;52.60;24.10;100807.00;;;;5064744;28;20094;-67
2022/06/25 06:54:35;;;;;;;10.80;1.83;;;25.20;52.30;24.10;100806.00;;;;5060502;28;20067;-67
2022/06/25 06:57:21;;;;;;;2.90;1.30;;;25.20;52.30;24.10;100803.00;;;;5062129;28;20053;-67
2022/06/25 07:00:08;;;;;;;12.07;1.95;;;25.20;52.20;24.10;100807.00;;;;5062851;28;20045;-67
2022/06/25 07:02:54;;;;;;;6.30;1.90;;;25.20;52.10;24.10;100808.00;;;;5044914;28;20432;-67
2022/06/25 07:05:40;;;;;;;2.58;1.63;;;25.10;52.20;24.00;100806.00;;;;5041174;28;20028;-67
2022/06/25 07:08:26;;;;;;;9.13;2.33;;;25.20;52.30;24.00;100805.00;;;;5046573;28;20041;-66
2022/06/25 07:11:31;;;;;;;3.72;1.98;;;25.20;52.30;24.00;100804.00;;;;5063174;28;20048;-66
2022/06/25 07:14:17;;;;;;;8.20;1.50;;;25.20;52.40;24.00;100816.00;;;;5063223;28;20103;-66
2022/06/25 07:17:03;;;;;;;5.85;1.63;;;25.20;52.30;24.00;100810.00;;;;5067617;28;21061;-67
2022/06/25 07:19:49;;;;;;;7.38;2.22;;;25.20;52.40;24.00;100811.00;;;;5068706;28;20036;-66
2022/06/25 07:22:35;;;;;;;4.40;1.92;;;25.20;52.40;24.00;100816.00;;;;5058314;28;20049;-66
2022/06/25 07:25:21;;;;;;;5.63;2.10;;;25.20;52.40;24.00;100807.00;;;;5067352;28;20066;-66
2022/06/25 07:28:08;;;;;;;4.85;2.05;;;25.20;52.30;24.00;100809.00;;;;5068899;28;20387;-66
2022/06/25 07:30:54;;;;;;;7.55;1.90;;;25.20;52.30;24.00;100806.00;;;;5066323;28;20118;-66
2022/06/25 07:33:40;;;;;;;3.75;2.00;;;25.10;52.20;24.00;100806.00;;;;5064826;28;20047;-66
2022/06/25 07:36:26;;;;;;;4.30;2.10;;;25.10;52.30;24.00;100806.00;;;;5067475;28;20040;-66
2022/06/25 07:39:12;;;;;;;3.45;2.10;;;25.10;52.40;24.00;100816.00;;;;5048848;28;20425;-67
2022/06/25 07:41:58;;;;;;;16.30;2.72;;;25.10;52.40;24.00;100804.00;;;;5058412;28;20128;-67
2022/06/25 07:44:45;;;;;;;4.10;2.00;;;25.10;52.60;24.00;100813.00;;;;5063628;28;20047;-67
2022/06/25 07:47:37;;;;;;;5.22;2.80;;;25.10;52.50;24.00;100813.00;;;;5053209;28;20492;-67
2022/06/25 07:53:28;;;;;;;4.35;2.03;;;25.10;52.30;24.00;100807.00;;;;5050264;28;20119;-66
2022/06/25 07:56:14;;;;;;;3.53;2.00;;;25.10;52.20;24.00;100812.00;;;;5062937;28;20033;-67
2022/06/25 07:59:00;;;;;;;5.35;2.50;;;25.10;52.10;24.00;100808.00;;;;5051685;28;20129;-67
2022/06/25 08:01:46;;;;;;;3.33;1.67;;;25.10;52.00;24.00;100813.00;;;;5049592;28;20083;-67
2022/06/25 08:04:32;;;;;;;4.65;1.83;;;25.10;51.90;24.00;100803.00;;;;5064756;28;20047;-67
2022/06/25 08:07:18;;;;;;;2.83;1.60;;;25.10;51.80;24.00;100811.00;;;;5066217;28;20492;-67
2022/06/25 08:10:05;;;;;;;3.28;1.73;;;25.20;51.80;24.00;100806.00;;;;5059972;28;20045;-67
2022/06/25 08:12:51;;;;;;;7.18;1.80;;;25.20;51.60;24.00;100801.00;;;;5043429;28;20066;-67
2022/06/25 08:15:37;;;;;;;1.92;1.80;;;25.10;51.50;24.10;100804.00;;;;5046560;28;20421;-67
2022/06/25 08:18:23;;;;;;;3.83;1.58;;;25.20;51.60;24.10;100799.00;;;;5053932;28;20095;-66
2022/06/25 08:21:09;;;;;;;5.10;1.90;;;25.20;51.40;24.10;100800.00;;;;5064545;28;20043;-67
2022/06/25 08:23:55;;;;;;;2.10;1.80;;;25.10;51.50;24.10;100793.00;;;;5046944;28;20040;-66
2022/06/25 08:26:42;;;;;;;8.93;3.65;;;25.20;51.50;24.10;100802.00;;;;5060458;28;20040;-66
2022/06/25 08:29:29;;;;;;;12.45;2.00;;;25.10;51.30;24.10;100805.00;;;;5055230;28;20035;-66
2022/06/25 08:32:15;;;;;;;4.43;2.00;;;25.20;51.40;24.10;100805.00;;;;5061546;28;20052;-66
2022/06/25 08:35:01;;;;;;;7.22;1.92;;;25.20;51.30;24.10;100805.00;;;;5046054;28;20045;-66
2022/06/25 08:37:48;;;;;;;3.85;1.90;;;25.20;51.30;24.00;100801.00;;;;5061509;28;20040;-67
2022/06/25 08:40:34;;;;;;;3.65;2.42;;;25.00;51.00;24.00;100799.00;;;;5058840;28;20560;-66
2022/06/25 08:43:20;;;;;;;2.60;1.90;;;25.20;51.30;24.10;100804.00;;;;5056932;28;20049;-66
2022/06/25 08:46:06;;;;;;;3.38;1.98;;;25.20;51.20;24.00;100803.00;;;;5060471;28;20048;-66
2022/06/25 08:48:52;;;;;;;4.57;2.33;;;25.10;51.20;24.00;100808.00;;;;5045645;28;20437;-66
2022/06/25 08:51:39;;;;;;;3.35;2.10;;;25.10;51.10;24.00;100797.00;;;;5039788;28;20051;-66
2022/06/25 08:54:25;;;;;;;5.82;2.00;;;25.10;51.30;24.00;100801.00;;;;5063257;28;20265;-66
2022/06/25 08:57:11;;;;;;;3.25;2.13;;;25.10;51.40;24.10;100798.00;;;;5050912;28;20332;-66
2022/06/25 08:59:57;;;;;;;12.07;2.40;;;25.10;52.00;24.00;100786.00;;;;5049858;28;20513;-66
2022/06/25 09:02:43;;;;;;;21.25;4.68;;;25.10;51.40;24.10;100795.00;;;;5036944;28;20040;-67
2022/06/25 09:05:32;;;;;;;18.50;2.97;;;25.10;51.50;24.10;100786.00;;;;5065998;28;20113;-66
2022/06/25 09:08:19;;;;;;;11.60;2.75;;;25.20;51.70;24.10;100792.00;;;;5049285;28;20043;-66
2022/06/25 09:11:05;;;;;;;10.43;2.38;;;25.20;51.70;24.10;100788.00;;;;5038216;28;20044;-66
2022/06/25 09:13:51;;;;;;;11.63;2.70;;;25.20;51.70;24.10;100791.00;;;;5064628;28;20398;-66
2022/06/25 09:16:37;;;;;;;6.93;2.35;;;25.10;51.60;24.10;100792.00;;;;5060658;28;20059;-66
2022/06/25 09:19:49;;;;;;;5.70;2.38;;;25.20;51.60;24.10;100778.00;;;;5063636;28;20487;-66
2022/06/25 09:22:35;;;;;;;5.00;2.53;;;25.10;51.50;24.10;100791.00;;;;5048557;28;20037;-66
2022/06/25 09:25:29;;;;;;;7.05;2.95;;;25.20;51.00;24.10;100787.00;;;;5048995;28;20037;-66
2022/06/25 09:28:33;;;;;;;8.00;2.67;;;25.20;51.10;24.10;100793.00;;;;5045499;28;20040;-66
2022/06/25 09:31:36;;;;;;;5.57;2.53;;;25.20;51.00;24.10;100788.00;;;;5060660;28;20229;-66
2022/06/25 09:34:22;;;;;;;2.97;2.35;;;25.20;51.10;24.10;100786.00;;;;5066025;28;20078;-66
2022/06/25 09:37:25;;;;;;;6.38;2.50;;;25.20;51.10;24.10;100780.00;;;;5019660;28;20447;-66
2022/06/25 09:40:11;;;;;;;5.40;2.80;;;25.20;51.10;24.10;100782.00;;;;5063986;28;20040;-66
2022/06/25 09:42:58;;;;;;;6.07;2.42;;;25.20;51.90;24.10;100783.00;;;;5025357;28;20044;-66
2022/06/25 09:45:47;;;;;;;5.28;2.15;;;25.20;51.20;24.10;100790.00;;;;5035487;28;20393;-66
2022/06/25 09:48:35;;;;;;;3.45;1.77;;;25.30;51.20;24.10;100782.00;;;;5043871;28;20512;-66
2022/06/25 09:51:26;;;;;;;4.10;1.67;;;25.30;51.20;24.10;100786.00;;;;5063630;28;20043;-66
2022/06/25 09:54:12;;;;;;;4.80;2.20;;;25.20;51.10;24.10;100791.00;;;;5048888;28;20048;-66
2022/06/25 09:56:59;;;;;;;1.92;1.58;;;25.20;51.00;24.10;100796.00;;;;5057836;28;20473;-66
2022/06/25 09:59:46;;;;;;;5.30;2.22;;;25.20;51.00;24.10;100795.00;;;;5047621;28;20051;-68
2022/06/25 10:02:32;;;;;;;3.50;1.90;;;25.20;51.00;24.10;100789.00;;;;5034236;28;20064;-66
2022/06/25 10:05:23;;;;;;;3.10;1.50;;;25.30;51.70;24.10;100790.00;;;;5021607;28;20134;-68
2022/06/25 10:08:12;;;;;;;2.40;1.85;;;25.20;51.00;24.10;100783.00;;;;5036719;28;20041;-65
2022/06/25 10:10:58;;;;;;;2.65;1.67;;;25.30;51.00;24.10;100789.00;;;;5033982;28;20119;-65
2022/06/25 10:13:44;;;;;;;3.15;1.60;;;25.20;50.90;24.10;100790.00;;;;5045106;28;20040;-66
2022/06/25 10:16:30;;;;;;;3.15;1.70;;;25.20;51.10;24.10;100790.00;;;;5045032;28;20755;-66
2022/06/25 10:19:16;;;;;;;4.03;1.83;;;25.30;50.90;24.10;100786.00;;;;5042286;28;20098;-65
2022/06/25 10:22:02;;;;;;;1.95;1.58;;;25.20;50.80;24.10;100786.00;;;;5044431;28;20048;-66
2022/06/25 10:24:48;;;;;;;2.55;1.55;;;25.30;50.80;24.10;100792.00;;;;5047618;28;20036;-66
2022/06/25 10:27:42;;;;;;;2.75;1.70;;;25.30;50.80;24.10;100791.00;;;;5037248;28;20521;-66
2022/06/25 10:30:57;;;;;;;2.85;1.70;;;25.20;50.70;24.10;100788.00;;;;5061286;28;20061;-65
2022/06/25 10:34:02;;;;;;;4.03;1.60;;;25.20;50.80;24.10;100788.00;;;;5041068;28;20056;-64
2022/06/25 10:36:51;;;;;;;4.10;1.60;;;25.30;50.80;24.10;100790.00;;;;5047344;28;20039;-63
2022/06/25 10:39:37;;;;;;;2.03;1.60;;;25.30;50.80;24.10;100789.00;;;;5060281;28;20079;-64
2022/06/25 10:45:34;;;;;;;2.97;1.80;;;25.20;50.50;24.10;100788.00;;;;5044535;28;20045;-64
2022/06/25 10:48:22;;;;;;;2.05;1.48;;;25.20;50.40;24.10;100782.00;;;;5060232;28;20060;-64
2022/06/25 10:51:08;;;;;;;2.40;1.30;;;25.30;50.40;24.10;100776.00;;;;5046377;28;20064;-64
2022/06/25 10:53:54;;;;;;;1.73;1.23;;;25.40;50.40;24.10;100789.00;;;;5025423;28;20054;-64
2022/06/25 10:56:46;;;;;;;1.88;1.20;;;25.20;50.20;24.10;100783.00;;;;5064863;28;20075;-66
2022/06/25 10:59:32;;;;;;;1.83;1.60;;;25.30;50.20;24.10;100783.00;;;;5036753;28;20482;-64
2022/06/25 11:02:23;;;;;;;1.45;1.35;;;25.30;50.20;24.10;100779.00;;;;5069831;28;20119;-64
2022/06/25 11:05:20;;;;;;;1.98;1.35;;;25.20;50.20;24.10;100770.00;;;;5057923;28;20037;-64
2022/06/25 11:08:07;;;;;;;7.03;1.77;;;25.30;50.20;24.10;100764.00;;;;5069503;28;20067;-64
2022/06/25 11:10:53;;;;;;;1.90;1.50;;;25.30;50.20;24.10;100768.00;;;;5040849;28;20033;-64
2022/06/25 11:13:42;;;;;;;3.08;1.50;;;25.30;50.30;24.20;100765.00;;;;5048296;28;20064;-65
2022/06/25 11:16:28;;;;;;;2.97;1.33;;;25.30;50.30;24.20;100773.00;;;;5066499;28;20063;-64
2022/06/25 11:19:14;;;;;;;2.58;1.52;;;25.30;50.30;24.20;100768.00;;;;5059980;28;20079;-65
2022/06/25 11:22:01;;;;;;;1.92;1.52;;;25.30;50.30;24.20;100764.00;;;;5067566;28;20040;-65
2022/06/25 11:30:56;;;;;;;1.90;1.30;;;25.30;50.30;24.20;100770.00;;;;5045370;28;20878;-65
2022/06/25 11:33:43;;;;;;;2.30;1.60;;;25.30;50.20;24.20;100775.00;;;;5049120;28;20032;-65
2022/06/25 11:36:32;;;;;;;1.73;1.15;;;25.30;50.20;24.20;100769.00;;;;5066973;28;20516;-65
2022/06/25 11:39:18;;;;;;;2.60;1.23;;;25.30;50.80;24.20;100774.00;;;;5047832;28;20035;-65
2022/06/25 11:42:09;;;;;;;2.10;1.52;;;25.30;50.20;24.20;100771.00;;;;5066887;28;20060;-65
2022/06/25 11:44:56;;;;;;;2.08;1.30;;;25.30;50.10;24.20;100770.00;;;;5066429;28;20055;-65
2022/06/25 11:47:42;;;;;;;;;;;25.40;50.20;24.20;100770.00;;;;5054198;28;20062;-65
2022/06/25 11:50:28;;;;;;;1.25;1.10;;;25.30;50.30;24.20;100771.00;;;;5046541;28;19916;-65
2022/06/25 11:53:15;;;;;;;2.33;1.45;;;25.40;50.10;24.20;100768.00;;;;5041650;28;20090;-65
2022/06/25 11:56:04;;;;;;;3.25;1.50;;;25.40;50.80;24.20;100763.00;;;;5039776;28;20033;-65
2022/06/25 11:58:50;;;;;;;4.47;1.58;;;25.40;50.00;24.20;100772.00;;;;5031453;28;20088;-65
2022/06/25 12:01:36;;;;;;;3.58;1.33;;;25.40;50.00;24.20;100765.00;;;;5060678;28;20497;-65
2022/06/25 12:04:22;;;;;;;3.45;1.20;;;25.40;50.00;24.20;100769.00;;;;5058211;28;20135;-65
2022/06/25 12:07:26;;;;;;;5.13;1.75;;;25.40;49.90;24.20;100761.00;;;;5052436;28;20043;-65
2022/06/25 12:10:12;;;;;;;1.77;1.20;;;25.40;50.00;24.20;100761.00;;;;5045285;28;20037;-65
2022/06/25 12:12:58;;;;;;;1.38;1.27;;;25.40;50.00;24.20;100770.00;;;;5066223;28;20152;-65
2022/06/25 12:15:45;;;;;;;3.30;1.13;;;25.40;49.90;24.20;100765.00;;;;5018654;28;20055;-65
2022/06/25 12:18:37;;;;;;;1.95;0.98;;;25.40;49.80;24.20;100764.00;;;;5050213;28;20518;-65
2022/06/25 12:21:23;;;;;;;2.28;1.13;;;25.40;49.70;24.30;100761.00;;;;5065842;28;20044;-66
2022/06/25 12:24:12;;;;;;;2.17;1.30;;;25.40;50.30;24.20;100759.00;;;;5055465;28;20370;-72
2022/06/25 12:26:58;;;;;;;2.08;0.93;;;25.40;49.50;24.30;100768.00;;;;5063907;28;20049;-65
2022/06/25 12:29:49;;;;;;;2.65;1.10;;;25.40;49.30;24.30;100768.00;;;;5057534;28;20036;-66
2022/06/25 12:32:42;;;;;;;1.92;1.00;;;25.40;49.10;24.30;100774.00;;;;5061629;28;20709;-66
2022/06/25 12:35:28;;;;;;;13.85;1.75;;;25.30;49.00;24.30;100772.00;;;;5044772;28;20072;-68
2022/06/25 12:38:14;;;;;;;2.72;1.05;;;25.50;49.00;24.30;100772.00;;;;5041304;28;20434;-66